createdAt,value
2023-05-14T00:01:55.951Z,101637.72
2023-05-14T00:04:23.660Z,101639.47
2023-05-14T00:06:51.261Z,101635.13
2023-05-14T00:09:18.841Z,101629.88
2023-05-14T00:11:46.004Z,101630.75
2023-05-14T00:14:13.726Z,101627.28
2023-05-14T00:16:41.737Z,101630.78
2023-05-14T00:19:08.912Z,101637.75
2023-05-14T00:21:38.866Z,101624.69
2023-05-14T00:24:06.126Z,101631.69
2023-05-14T00:26:33.166Z,101623.88
2023-05-14T00:29:00.407Z,101617.75
2023-05-14T00:31:27.274Z,101613.41
2023-05-14T00:33:54.345Z,101609.91
2023-05-14T00:36:21.493Z,101611.66
2023-05-14T00:38:49.998Z,101613.41
2023-05-14T00:41:17.163Z,101618.63
2023-05-14T00:43:44.638Z,101606.44
2023-05-14T00:46:15.798Z,101606.44
2023-05-14T00:48:43.002Z,101600.31
2023-05-14T00:51:14.257Z,101602.06
2023-05-14T00:53:42.895Z,101595.09
2023-05-14T00:56:10.846Z,101599.47
2023-05-14T00:58:38.077Z,101604.69
2023-05-14T01:01:06.106Z,101604.69
2023-05-14T01:03:34.587Z,101592.47
2023-05-14T01:06:25.716Z,101594.22
2023-05-14T01:09:15.312Z,101590.72
2023-05-14T01:12:31.027Z,101586.38
2023-05-14T01:15:12.054Z,101594.22
2023-05-14T01:17:43.442Z,101593.34
2023-05-14T01:20:11.941Z,101591.63
2023-05-14T01:22:39.047Z,101594.25
2023-05-14T01:25:07.045Z,101590.75
2023-05-14T01:28:02.829Z,101589.88
2023-05-14T01:30:35.857Z,101583.75
2023-05-14T01:33:09.501Z,101585.50
2023-05-14T01:35:37.932Z,101575.91
2023-05-14T01:38:11.095Z,101584.63
2023-05-14T01:40:38.467Z,101580.25
2023-05-14T01:43:05.837Z,101582.84
2023-05-14T01:45:35.756Z,101588.94
2023-05-14T01:48:03.194Z,101585.50
2023-05-14T01:50:30.868Z,101588.06
2023-05-14T01:52:57.834Z,101590.69
2023-05-14T01:55:25.692Z,101576.72
2023-05-14T01:57:53.137Z,101580.25
2023-05-14T02:00:25.418Z,101574.97
2023-05-14T02:02:52.469Z,101576.72
2023-05-14T02:05:19.871Z,101574.09
2023-05-14T02:07:49.641Z,101567.97
2023-05-14T02:10:16.415Z,101574.06
2023-05-14T02:12:43.424Z,101573.19
2023-05-14T02:15:11.178Z,101574.06
2023-05-14T02:17:38.773Z,101575.81
2023-05-14T02:20:07.132Z,101572.34
2023-05-14T02:22:35.801Z,101570.56
2023-05-14T02:25:02.965Z,101566.22
2023-05-14T02:27:30.481Z,101558.38
2023-05-14T02:30:00.788Z,101570.56
2023-05-14T02:32:28.399Z,101572.31
2023-05-14T02:34:55.775Z,101574.03
2023-05-14T02:37:22.898Z,101576.66
2023-05-14T02:39:50.124Z,101574.03
2023-05-14T02:42:17.700Z,101570.50
2023-05-14T02:44:44.844Z,101571.34
2023-05-14T02:47:12.045Z,101575.72
2023-05-14T02:49:40.474Z,101577.41
2023-05-14T02:52:07.610Z,101578.28
2023-05-14T02:54:34.803Z,101581.75
2023-05-14T02:57:03.883Z,101573.03
2023-05-14T02:59:31.685Z,101573.88
2023-05-14T03:01:59.302Z,101571.28
2023-05-14T03:04:27.061Z,101573.88
2023-05-14T03:06:54.265Z,101576.47
2023-05-14T03:09:21.317Z,101581.69
2023-05-14T03:11:50.436Z,101575.56
2023-05-14T03:14:17.467Z,101573.81
2023-05-14T03:16:44.427Z,101562.50
2023-05-14T03:19:12.246Z,101569.44
2023-05-14T03:21:39.908Z,101569.47
2023-05-14T03:24:07.096Z,101569.44
2023-05-14T03:26:34.573Z,101566.81
2023-05-14T03:29:02.501Z,101567.66
2023-05-14T03:31:29.563Z,101574.66
2023-05-14T03:33:56.490Z,101566.81
2023-05-14T03:36:23.401Z,101560.69
2023-05-14T03:38:50.517Z,101569.41
2023-05-14T03:41:20.003Z,101572.88
2023-05-14T03:43:47.142Z,101558.06
2023-05-14T03:46:14.185Z,101561.50
2023-05-14T03:48:42.555Z,101560.63
2023-05-14T03:51:10.520Z,101555.41
2023-05-14T03:53:37.861Z,101558.03
2023-05-14T03:56:05.143Z,101558.91
2023-05-14T03:58:32.218Z,101554.53
2023-05-14T04:00:58.933Z,101546.75
2023-05-14T04:03:26.089Z,101558.91
2023-05-14T04:05:53.281Z,101544.94
2023-05-14T04:08:20.302Z,101553.69
2023-05-14T04:10:47.091Z,101546.69
2023-05-14T04:13:14.212Z,101545.84
2023-05-14T04:15:41.852Z,101543.16
2023-05-14T04:18:08.761Z,101550.97
2023-05-14T04:20:35.669Z,101540.53
2023-05-14T04:23:02.780Z,101543.09
2023-05-14T04:25:32.035Z,101539.66
2023-05-14T04:27:59.761Z,101541.44
2023-05-14T04:30:26.995Z,101545.78
2023-05-14T04:32:53.729Z,101543.25
2023-05-14T04:35:24.122Z,101538.06
2023-05-14T04:37:52.988Z,101538.13
2023-05-14T04:40:22.330Z,101543.34
2023-05-14T04:42:50.213Z,101538.16
2023-05-14T04:45:17.623Z,101538.16
2023-05-14T04:47:45.096Z,101543.38
2023-05-14T04:50:12.985Z,101541.63
2023-05-14T04:52:39.956Z,101536.47
2023-05-14T04:55:08.308Z,101546.94
2023-05-14T04:57:36.592Z,101544.31
2023-05-14T05:00:05.906Z,101539.97
2023-05-14T05:02:34.796Z,101545.19
2023-05-14T05:05:04.099Z,101545.19
2023-05-14T05:07:31.178Z,101549.53
2023-05-14T05:09:58.036Z,101553.88
2023-05-14T05:12:29.984Z,101548.66
2023-05-14T05:14:57.388Z,101559.13
2023-05-14T05:17:25.476Z,101555.69
2023-05-14T05:19:55.953Z,101548.75
2023-05-14T05:22:24.054Z,101550.50
2023-05-14T05:24:51.041Z,101544.41
2023-05-14T05:27:18.469Z,101548.78
2023-05-14T05:29:46.221Z,101550.53
2023-05-14T05:32:16.335Z,101546.19
2023-05-14T05:34:43.417Z,101558.41
2023-05-14T05:37:12.738Z,101551.44
2023-05-14T05:39:40.008Z,101552.28
2023-05-14T05:42:07.252Z,101554.91
2023-05-14T05:44:34.508Z,101554.91
2023-05-14T05:47:02.186Z,101547.06
2023-05-14T05:49:29.995Z,101554.94
2023-05-14T05:51:57.001Z,101555.81
2023-05-14T05:54:27.366Z,101547.13
2023-05-14T05:56:54.508Z,101545.38
2023-05-14T05:59:21.798Z,101544.56
2023-05-14T06:01:49.388Z,101549.75
2023-05-14T06:04:16.519Z,101553.25
2023-05-14T06:06:44.209Z,101550.63
2023-05-14T06:09:11.449Z,101554.09
2023-05-14T06:11:39.550Z,101554.97
2023-05-14T06:14:06.695Z,101552.34
2023-05-14T06:16:33.742Z,101561.06
2023-05-14T06:19:03.881Z,101554.94
2023-05-14T06:21:31.621Z,101569.75
2023-05-14T06:24:00.016Z,101568.88
2023-05-14T06:26:27.432Z,101571.47
2023-05-14T06:28:54.686Z,101564.47
2023-05-14T06:31:22.141Z,101567.09
2023-05-14T06:33:49.766Z,101574.03
2023-05-14T06:36:16.881Z,101566.16
2023-05-14T06:38:43.705Z,101569.66
2023-05-14T06:41:10.645Z,101568.72
2023-05-14T06:43:37.499Z,101565.19
2023-05-14T06:46:04.489Z,101564.31
2023-05-14T06:48:31.314Z,101560.75
2023-05-14T06:50:58.021Z,101562.38
2023-05-14T06:53:24.963Z,101552.72
2023-05-14T06:55:52.363Z,101557.00
2023-05-14T06:58:19.632Z,101557.81
2023-05-14T07:00:46.553Z,101550.72
2023-05-14T07:03:13.626Z,101555.13
2023-05-14T07:05:41.445Z,101553.31
2023-05-14T07:08:08.976Z,101544.53
2023-05-14T07:10:37.611Z,101542.75
2023-05-14T07:13:04.619Z,101560.09
2023-05-14T07:15:31.727Z,101556.50
2023-05-14T07:17:59.367Z,101547.66
2023-05-14T07:20:26.780Z,101545.69
2023-05-14T07:22:53.950Z,101549.16
2023-05-14T07:25:20.987Z,101550.84
2023-05-14T07:27:48.222Z,101545.47
2023-05-14T07:30:15.681Z,101540.97
2023-05-14T07:32:43.636Z,101534.69
2023-05-14T07:35:11.747Z,101538.06
2023-05-14T07:37:39.473Z,101534.41
2023-05-14T07:40:07.086Z,101537.75
2023-05-14T07:42:37.118Z,101541.09
2023-05-14T07:45:05.566Z,101539.16
2023-05-14T07:47:32.815Z,101538.91
2023-05-14T07:50:00.358Z,101539.63
2023-05-14T07:52:29.136Z,101536.00
2023-05-14T07:54:56.030Z,101543.84
2023-05-14T07:57:23.561Z,101538.38
2023-05-14T07:59:50.383Z,101536.47
2023-05-14T08:02:17.864Z,101539.78
2023-05-14T08:04:44.949Z,101541.28
2023-05-14T08:07:12.265Z,101542.88
2023-05-14T08:09:39.258Z,101533.91
2023-05-14T08:12:06.752Z,101536.31
2023-05-14T08:14:34.155Z,101535.25
2023-05-14T08:17:01.205Z,101528.03
2023-05-14T08:19:28.424Z,101527.81
2023-05-14T08:21:55.297Z,101530.31
2023-05-14T08:24:23.466Z,101525.84
2023-05-14T08:26:50.826Z,101531.84
2023-05-14T08:29:17.678Z,101520.16
2023-05-14T08:31:44.481Z,101520.94
2023-05-14T08:34:12.541Z,101526.88
2023-05-14T08:36:39.988Z,101518.81
2023-05-14T08:39:07.876Z,101515.97
2023-05-14T08:41:36.250Z,101525.44
2023-05-14T08:44:12.926Z,101522.63
2023-05-14T08:46:42.012Z,101521.66
2023-05-14T08:49:19.194Z,101515.34
2023-05-14T08:51:48.373Z,101511.81
2023-05-14T08:54:19.183Z,101506.53
2023-05-14T08:56:51.193Z,101508.16
2023-05-14T08:59:20.001Z,101509.59
2023-05-14T09:01:48.812Z,101500.59
2023-05-14T09:04:19.520Z,101497.78
2023-05-14T09:06:49.388Z,101502.88
2023-05-14T09:09:16.785Z,101491.53
2023-05-14T09:11:48.423Z,101493.19
2023-05-14T09:14:15.954Z,101491.38
2023-05-14T09:16:46.239Z,101493.09
2023-05-14T09:19:14.422Z,101485.75
2023-05-14T09:21:45.378Z,101486.16
2023-05-14T09:24:24.060Z,101488.69
2023-05-14T09:26:53.304Z,101487.81
2023-05-14T09:29:20.317Z,101491.38
2023-05-14T09:31:51.739Z,101490.41
2023-05-14T09:34:30.760Z,101476.25
2023-05-14T09:37:03.256Z,101483.97
2023-05-14T09:39:31.220Z,101480.81
2023-05-14T09:41:59.360Z,101469.19
2023-05-14T09:44:26.430Z,101477.84
2023-05-14T09:46:53.579Z,101464.47
2023-05-14T09:49:23.912Z,101471.03
2023-05-14T09:51:51.863Z,101465.84
2023-05-14T09:54:19.001Z,101463.19
2023-05-14T09:56:55.082Z,101464.09
2023-05-14T09:59:25.882Z,101459.28
2023-05-14T10:01:53.734Z,101458.31
2023-05-14T10:04:22.086Z,101459.97
2023-05-14T10:06:52.900Z,101456.09
2023-05-14T10:09:23.196Z,101457.25
2023-05-14T10:11:53.980Z,101444.50
2023-05-14T10:14:29.372Z,101443.50
2023-05-14T10:17:00.426Z,101443.78
2023-05-14T10:19:28.278Z,101446.91
2023-05-14T10:21:57.469Z,101444.53
2023-05-14T10:24:25.052Z,101443.69
2023-05-14T10:26:53.867Z,101436.94
2023-05-14T10:29:31.724Z,101441.13
2023-05-14T10:31:58.769Z,101437.09
2023-05-14T10:34:42.498Z,101441.25
2023-05-14T10:37:12.612Z,101423.59
2023-05-14T10:40:05.969Z,101429.03
2023-05-14T10:42:40.924Z,101429.63
2023-05-14T10:45:12.560Z,101425.78
2023-05-14T10:47:43.261Z,101424.38
2023-05-14T10:50:13.173Z,101418.16
2023-05-14T10:52:44.655Z,101415.53
2023-05-14T10:55:16.857Z,101419.03
2023-05-14T10:57:46.232Z,101412.91
2023-05-14T11:00:14.876Z,101427.25
2023-05-14T11:02:44.458Z,101408.97
2023-05-14T11:05:17.834Z,101416.91
2023-05-14T11:07:47.813Z,101401.72
2023-05-14T11:10:19.842Z,101406.91
2023-05-14T11:12:49.008Z,101399.84
2023-05-14T11:15:17.778Z,101404.13
2023-05-14T11:17:46.982Z,101393.31
2023-05-14T11:20:14.677Z,101391.97
2023-05-14T11:22:43.048Z,101388.81
2023-05-14T11:25:14.539Z,101385.56
2023-05-14T11:27:45.640Z,101384.84
2023-05-14T11:30:18.260Z,101383.31
2023-05-14T11:32:48.000Z,101382.75
2023-05-14T11:35:16.228Z,101378.81
2023-05-14T11:37:51.325Z,101379.50
2023-05-14T11:40:19.088Z,101364.91
2023-05-14T11:42:46.256Z,101363.81
2023-05-14T11:45:14.380Z,101369.66
2023-05-14T11:47:42.776Z,101361.41
2023-05-14T11:50:11.252Z,101369.09
2023-05-14T11:52:40.987Z,101368.06
2023-05-14T11:55:12.610Z,101368.44
2023-05-14T11:57:40.950Z,101367.84
2023-05-14T12:00:11.066Z,101364.31
2023-05-14T12:02:38.935Z,101351.31
2023-05-14T12:05:11.649Z,101347.88
2023-05-14T12:07:39.424Z,101352.91
2023-05-14T12:10:07.228Z,101350.66
2023-05-14T12:12:37.414Z,101348.13
2023-05-14T12:15:12.559Z,101343.25
2023-05-14T12:17:39.901Z,101348.19
2023-05-14T12:20:11.151Z,101347.03
2023-05-14T12:22:39.080Z,101347.53
2023-05-14T12:25:15.114Z,101339.22
2023-05-14T12:27:45.562Z,101341.13
2023-05-14T12:30:34.686Z,101337.22
2023-05-14T12:33:00.408Z,101330.47
2023-05-14T12:35:27.815Z,101325.28
2023-05-14T12:37:55.228Z,101323.88
2023-05-14T12:40:22.341Z,101328.72
2023-05-14T12:42:49.764Z,101328.16
2023-05-14T12:45:17.016Z,101326.38
2023-05-14T12:47:44.293Z,101322.25
2023-05-14T12:50:11.782Z,101318.50
2023-05-14T12:52:39.953Z,101316.19
2023-05-14T12:55:09.335Z,101318.09
2023-05-14T12:57:38.838Z,101318.41
2023-05-14T13:00:08.271Z,101315.75
2023-05-14T13:02:42.923Z,101308.88
2023-05-14T13:05:12.030Z,101314.19
2023-05-14T13:07:39.506Z,101308.97
2023-05-14T13:10:06.863Z,101298.47
2023-05-14T13:12:34.331Z,101285.13
2023-05-14T13:15:01.516Z,101291.88
2023-05-14T13:17:28.566Z,101286.06
2023-05-14T13:19:55.643Z,101283.50
2023-05-14T13:22:22.668Z,101278.19
2023-05-14T13:24:50.291Z,101279.81
2023-05-14T13:27:17.647Z,101282.69
2023-05-14T13:29:44.715Z,101277.94
2023-05-14T13:32:11.677Z,101266.44
2023-05-14T13:34:38.451Z,101264.66
2023-05-14T13:37:05.574Z,101272.22
2023-05-14T13:39:32.381Z,101275.00
2023-05-14T13:41:59.662Z,101282.34
2023-05-14T13:44:27.018Z,101276.44
2023-05-14T13:46:54.446Z,101270.25
2023-05-14T13:49:21.831Z,101267.16
2023-05-14T13:51:50.638Z,101259.34
2023-05-14T13:54:17.924Z,101266.69
2023-05-14T13:56:45.351Z,101252.72
2023-05-14T13:59:12.439Z,101255.59
2023-05-14T14:01:39.874Z,101247.06
2023-05-14T14:04:06.677Z,101249.69
2023-05-14T14:06:34.497Z,101244.13
2023-05-14T14:09:01.776Z,101250.81
2023-05-14T14:11:28.790Z,101243.66
2023-05-14T14:13:55.752Z,101237.03
2023-05-14T14:16:23.608Z,101236.50
2023-05-14T14:18:51.061Z,101241.19
2023-05-14T14:21:20.657Z,101239.75
2023-05-14T14:23:47.936Z,101232.09
2023-05-14T14:26:14.807Z,101238.75
2023-05-14T14:28:42.001Z,101228.63
2023-05-14T14:31:09.404Z,101233.22
2023-05-14T14:33:36.287Z,101233.84
2023-05-14T14:36:03.890Z,101232.28
2023-05-14T14:38:30.839Z,101225.44
2023-05-14T14:40:58.219Z,101225.69
2023-05-14T14:43:24.995Z,101215.16
2023-05-14T14:45:51.923Z,101212.13
2023-05-14T14:48:27.280Z,101212.03
2023-05-14T14:50:55.440Z,101203.59
2023-05-14T14:53:23.683Z,101215.28
2023-05-14T14:55:51.777Z,101212.78
2023-05-14T14:58:20.230Z,101214.69
2023-05-14T15:00:48.304Z,101207.03
2023-05-14T15:03:15.740Z,101213.69
2023-05-14T15:05:43.449Z,101207.88
2023-05-14T15:08:11.192Z,101212.88
2023-05-14T15:10:38.382Z,101213.44
2023-05-14T15:13:06.662Z,101211.78
2023-05-14T15:15:36.062Z,101211.22
2023-05-14T15:18:04.491Z,101213.25
2023-05-14T15:20:31.659Z,101211.06
2023-05-14T15:22:58.934Z,101207.44
2023-05-14T15:25:27.054Z,101202.78
2023-05-14T15:27:54.904Z,101198.34
2023-05-14T15:30:22.310Z,101199.25
2023-05-14T15:32:50.237Z,101196.59
2023-05-14T15:35:17.764Z,101202.25
2023-05-14T15:37:45.403Z,101198.25
2023-05-14T15:40:13.417Z,101200.94
2023-05-14T15:42:42.192Z,101200.16
2023-05-14T15:45:10.676Z,101195.16
2023-05-14T15:47:37.595Z,101199.78
2023-05-14T15:50:05.487Z,101198.00
2023-05-14T15:52:32.706Z,101187.75
2023-05-14T15:55:00.347Z,101194.97
2023-05-14T15:57:27.621Z,101191.53
2023-05-14T15:59:54.744Z,101198.56
2023-05-14T16:02:22.291Z,101191.84
2023-05-14T16:04:49.676Z,101193.69
2023-05-14T16:07:16.718Z,101188.06
2023-05-14T16:09:44.833Z,101190.25
2023-05-14T16:12:12.456Z,101187.84
2023-05-14T16:14:41.992Z,101187.75
2023-05-14T16:17:09.221Z,101189.50
2023-05-14T16:19:35.986Z,101199.97
2023-05-14T16:22:04.583Z,101202.19
2023-05-14T16:24:31.368Z,101200.28
2023-05-14T16:26:58.522Z,101189.34
2023-05-14T16:29:25.702Z,101190.25
2023-05-14T16:31:52.994Z,101189.50
2023-05-14T16:34:20.284Z,101185.34
2023-05-14T16:36:47.435Z,101191.53
2023-05-14T16:39:14.305Z,101183.75
2023-05-14T16:41:41.461Z,101183.41
2023-05-14T16:44:08.262Z,101189.44
2023-05-14T16:46:35.288Z,101185.03
2023-05-14T16:49:02.512Z,101192.94
2023-05-14T16:51:29.674Z,101180.50
2023-05-14T16:53:56.688Z,101183.47
2023-05-14T16:56:24.103Z,101180.91
2023-05-14T16:58:51.433Z,101183.41
2023-05-14T17:01:19.207Z,101194.75
2023-05-14T17:03:46.858Z,101185.09
2023-05-14T17:06:14.018Z,101182.25
2023-05-14T17:08:41.203Z,101192.75
2023-05-14T17:11:08.406Z,101185.88
2023-05-14T17:13:35.692Z,101181.94
2023-05-14T17:16:03.069Z,101187.75
2023-05-14T17:18:30.101Z,101192.97
2023-05-14T17:20:56.993Z,101200.38
2023-05-14T17:23:25.892Z,101192.22
2023-05-14T17:25:56.477Z,101198.25
2023-05-14T17:28:24.686Z,101190.03
2023-05-14T17:30:51.556Z,101193.75
2023-05-14T17:33:18.995Z,101193.53
2023-05-14T17:35:46.081Z,101193.13
2023-05-14T17:38:13.381Z,101189.78
2023-05-14T17:40:40.977Z,101196.94
2023-05-14T17:43:08.565Z,101202.38
2023-05-14T17:45:46.180Z,101197.19
2023-05-14T17:48:20.634Z,101200.94
2023-05-14T17:50:47.899Z,101201.19
2023-05-14T17:53:15.110Z,101196.28
2023-05-14T17:55:43.746Z,101199.44
2023-05-14T17:58:13.315Z,101204.22
2023-05-14T18:00:41.326Z,101202.75
2023-05-14T18:03:09.518Z,101204.84
2023-05-14T18:05:36.691Z,101204.97
2023-05-14T18:08:05.462Z,101201.53
2023-05-14T18:10:32.892Z,101208.94
2023-05-14T18:13:00.331Z,101208.41
2023-05-14T18:15:27.579Z,101207.78
2023-05-14T18:17:55.088Z,101210.75
2023-05-14T18:20:22.105Z,101206.44
2023-05-14T18:22:52.447Z,101213.56
2023-05-14T18:25:20.808Z,101208.63
2023-05-14T18:27:47.754Z,101215.06
2023-05-14T18:30:15.945Z,101210.88
2023-05-14T18:32:44.571Z,101210.25
2023-05-14T18:35:12.736Z,101207.84
2023-05-14T18:37:41.049Z,101209.94
2023-05-14T18:40:09.057Z,101202.16
2023-05-14T18:42:36.219Z,101213.06
2023-05-14T18:45:04.207Z,101210.66
2023-05-14T18:47:32.428Z,101217.03
2023-05-14T18:50:01.743Z,101226.00
2023-05-14T18:52:29.321Z,101220.19
2023-05-14T18:54:57.024Z,101213.50
2023-05-14T18:57:35.007Z,101218.16
2023-05-14T19:00:03.086Z,101213.94
2023-05-14T19:02:30.885Z,101219.31
2023-05-14T19:04:57.801Z,101217.81
2023-05-14T19:07:25.978Z,101211.13
2023-05-14T19:09:56.283Z,101227.09
2023-05-14T19:12:23.193Z,101213.81
2023-05-14T19:14:50.514Z,101220.94
2023-05-14T19:17:19.217Z,101225.56
2023-05-14T19:19:47.798Z,101225.78
2023-05-14T19:22:14.537Z,101217.22
2023-05-14T19:24:41.514Z,101224.50
2023-05-14T19:27:09.274Z,101223.88
2023-05-14T19:29:39.602Z,101219.69
2023-05-14T19:32:07.067Z,101225.28
2023-05-14T19:34:34.123Z,101225.47
2023-05-14T19:37:01.237Z,101233.56
2023-05-14T19:39:28.034Z,101226.63
2023-05-14T19:41:54.815Z,101225.06
2023-05-14T19:44:21.934Z,101226.84
2023-05-14T19:46:49.585Z,101234.00
2023-05-14T19:49:16.814Z,101224.50
2023-05-14T19:51:44.203Z,101231.72
2023-05-14T19:54:11.327Z,101233.59
2023-05-14T19:56:38.822Z,101240.91
2023-05-14T19:59:05.838Z,101239.25
2023-05-14T20:01:34.831Z,101242.03
2023-05-14T20:04:02.354Z,101234.16
2023-05-14T20:06:29.682Z,101238.66
2023-05-14T20:08:56.448Z,101236.97
2023-05-14T20:11:24.653Z,101243.19
2023-05-14T20:13:51.574Z,101236.28
2023-05-14T20:16:19.036Z,101237.19
2023-05-14T20:18:46.289Z,101236.34
2023-05-14T20:21:13.021Z,101240.81
2023-05-14T20:23:40.144Z,101240.84
2023-05-14T20:26:07.189Z,101237.50
2023-05-14T20:28:34.068Z,101235.84
2023-05-14T20:31:03.030Z,101226.25
2023-05-14T20:33:30.967Z,101228.16
2023-05-14T20:35:58.649Z,101223.94
2023-05-14T20:38:29.614Z,101223.13
2023-05-14T20:40:57.920Z,101227.72
2023-05-14T20:43:27.593Z,101227.00
2023-05-14T20:45:57.397Z,101224.47
2023-05-14T20:48:25.573Z,101223.69
2023-05-14T20:50:53.785Z,101230.88
2023-05-14T20:53:21.866Z,101227.38
2023-05-14T20:55:49.569Z,101227.38
2023-05-14T20:58:17.025Z,101224.03
2023-05-14T21:00:44.712Z,101220.56
2023-05-14T21:03:11.966Z,101224.13
2023-05-14T21:05:41.542Z,101227.78
2023-05-14T21:08:08.389Z,101226.03
2023-05-14T21:10:35.736Z,101214.81
2023-05-14T21:13:02.555Z,101220.13
2023-05-14T21:15:30.703Z,101215.78
2023-05-14T21:17:58.098Z,101229.91
2023-05-14T21:20:27.123Z,101225.53
2023-05-14T21:22:55.807Z,101225.59
2023-05-14T21:25:23.198Z,101223.84
2023-05-14T21:27:50.363Z,101215.16
2023-05-14T21:30:17.298Z,101215.19
2023-05-14T21:32:44.979Z,101207.41
2023-05-14T21:35:12.540Z,101212.75
2023-05-14T21:37:40.506Z,101209.31
2023-05-14T21:40:09.335Z,101209.47
2023-05-14T21:42:37.368Z,101204.25
2023-05-14T21:45:04.513Z,101218.31
2023-05-14T21:47:33.178Z,101209.53
2023-05-14T21:50:01.751Z,101209.38
2023-05-14T21:52:28.589Z,101205.78
2023-05-14T21:54:55.931Z,101207.44
2023-05-14T21:57:23.347Z,101210.91
2023-05-14T21:59:50.307Z,101202.09
2023-05-14T22:02:17.496Z,101207.28
2023-05-14T22:04:44.724Z,101210.75
2023-05-14T22:07:11.801Z,101208.94
2023-05-14T22:09:39.002Z,101208.03
2023-05-14T22:12:06.848Z,101215.84
2023-05-14T22:14:34.637Z,101214.16
2023-05-14T22:17:01.590Z,101207.22
2023-05-14T22:19:28.830Z,101203.72
2023-05-14T22:21:56.799Z,101209.88
2023-05-14T22:24:23.523Z,101207.28
2023-05-14T22:26:51.696Z,101205.56
2023-05-14T22:29:18.779Z,101204.75
2023-05-14T22:31:45.786Z,101198.78
2023-05-14T22:34:12.930Z,101201.41
2023-05-14T22:36:40.271Z,101211.19
2023-05-14T22:39:07.519Z,101207.88
2023-05-14T22:41:35.263Z,101203.53
2023-05-14T22:44:02.067Z,101200.03
2023-05-14T22:46:29.914Z,101200.09
2023-05-14T22:48:57.258Z,101193.97
2023-05-14T22:51:25.525Z,101199.28
2023-05-14T22:53:52.934Z,101188.84
2023-05-14T22:56:21.761Z,101192.50
2023-05-14T22:58:48.693Z,101183.78
2023-05-14T23:01:15.585Z,101183.00
2023-05-14T23:03:42.776Z,101182.19
2023-05-14T23:06:09.683Z,101178.75
2023-05-14T23:08:36.405Z,101181.47
2023-05-14T23:11:03.638Z,101183.31
2023-05-14T23:13:31.470Z,101173.81
2023-05-14T23:15:58.627Z,101180.94
2023-05-14T23:18:28.220Z,101174.88
2023-05-14T23:20:55.610Z,101176.72
2023-05-14T23:23:22.267Z,101175.88
2023-05-14T23:25:50.672Z,101184.75
2023-05-14T23:28:18.485Z,101171.72
2023-05-14T23:30:46.025Z,101179.69
2023-05-14T23:33:13.076Z,101169.22
2023-05-14T23:35:40.718Z,101170.97
2023-05-14T23:38:07.857Z,101169.31
2023-05-14T23:40:35.902Z,101164.19
2023-05-14T23:43:03.195Z,101169.53
2023-05-14T23:45:30.913Z,101166.09
2023-05-14T23:47:58.672Z,101166.22
2023-05-14T23:50:25.724Z,101164.53
2023-05-14T23:52:53.820Z,101155.78
2023-05-14T23:55:21.362Z,101153.22
2023-05-14T23:57:49.108Z,101158.59
